createdAt,value
2018-05-12T00:00:30.644Z,33.67
2018-05-12T00:02:57.103Z,31.90
2018-05-12T00:05:24.401Z,31.03
2018-05-12T00:07:50.894Z,31.67
2018-05-12T00:10:17.368Z,31.37
2018-05-12T00:12:44.039Z,30.60
2018-05-12T00:15:10.553Z,31.07
2018-05-12T00:17:37.101Z,31.07
2018-05-12T00:20:03.557Z,30.00
2018-05-12T00:22:30.802Z,31.97
2018-05-12T00:24:57.346Z,31.80
2018-05-12T00:27:24.639Z,31.07
2018-05-12T00:29:51.170Z,32.57
2018-05-12T00:32:17.736Z,31.57
2018-05-12T00:34:44.214Z,30.17
2018-05-12T00:37:10.751Z,27.93
2018-05-12T00:39:37.955Z,31.13
2018-05-12T00:42:04.497Z,28.93
2018-05-12T00:44:31.322Z,28.63
2018-05-12T00:46:57.902Z,31.13
2018-05-12T00:49:24.407Z,31.47
2018-05-12T00:51:51.089Z,30.67
2018-05-12T00:54:18.365Z,29.90
2018-05-12T00:56:44.832Z,29.80
2018-05-12T00:59:11.451Z,28.90
2018-05-12T01:01:37.934Z,28.33
2018-05-12T01:04:05.164Z,29.13
2018-05-12T01:06:31.697Z,29.80
2018-05-12T01:08:58.213Z,31.07
2018-05-12T01:11:24.721Z,30.80
2018-05-12T01:13:51.298Z,31.50
2018-05-12T01:16:17.823Z,29.87
2018-05-12T01:18:44.339Z,29.70
2018-05-12T01:21:10.822Z,29.33
2018-05-12T01:23:37.335Z,27.90
2018-05-12T01:26:03.937Z,29.13
2018-05-12T01:28:30.573Z,28.67
2018-05-12T01:30:57.152Z,28.77
2018-05-12T01:33:23.984Z,29.53
2018-05-12T01:35:50.567Z,31.43
2018-05-12T01:38:17.275Z,27.63
2018-05-12T01:40:43.805Z,28.53
2018-05-12T01:43:10.430Z,27.40
2018-05-12T01:45:36.964Z,27.97
2018-05-12T01:48:03.478Z,27.50
2018-05-12T01:50:30.082Z,28.03
2018-05-12T01:52:56.854Z,27.90
2018-05-12T01:55:23.392Z,26.60
2018-05-12T01:57:49.921Z,27.57
2018-05-12T02:00:16.477Z,26.33
2018-05-12T02:02:43.031Z,26.93
2018-05-12T02:05:09.570Z,25.17
2018-05-12T02:07:36.141Z,25.83
2018-05-12T02:10:03.361Z,26.67
2018-05-12T02:12:29.858Z,26.83
2018-05-12T02:14:56.362Z,28.63
2018-05-12T02:17:23.594Z,26.57
2018-05-12T02:19:50.268Z,26.40
2018-05-12T02:22:16.803Z,27.07
2018-05-12T02:24:43.650Z,26.57
2018-05-12T02:27:10.147Z,27.93
2018-05-12T02:29:37.477Z,29.00
2018-05-12T02:32:03.957Z,29.30
2018-05-12T02:34:30.542Z,27.50
2018-05-12T02:36:57.072Z,25.77
2018-05-12T02:39:23.771Z,26.37
2018-05-12T02:41:50.290Z,25.07
2018-05-12T02:44:17.511Z,26.10
2018-05-12T02:46:44.096Z,26.65
2018-05-12T02:49:10.588Z,26.40
2018-05-12T02:51:37.181Z,25.75
2018-05-12T02:54:03.641Z,24.93
2018-05-12T02:56:30.993Z,26.37
2018-05-12T02:58:57.463Z,25.80
2018-05-12T03:01:24.818Z,25.65
2018-05-12T03:03:52.126Z,26.73
2018-05-12T03:06:18.761Z,26.55
2018-05-12T03:08:45.243Z,25.57
2018-05-12T03:11:12.531Z,26.90
2018-05-12T03:13:39.029Z,25.33
2018-05-12T03:16:06.279Z,27.55
2018-05-12T03:18:33.471Z,25.67
2018-05-12T03:21:00.089Z,26.80
2018-05-12T03:23:26.544Z,26.83
2018-05-12T03:25:53.116Z,24.63
2018-05-12T03:28:19.647Z,25.30
2018-05-12T03:30:46.283Z,25.10
2018-05-12T03:33:12.933Z,23.62
2018-05-12T03:35:40.144Z,24.45
2018-05-12T03:38:06.671Z,25.55
2018-05-12T03:40:33.094Z,23.40
2018-05-12T03:42:59.622Z,23.58
2018-05-12T03:45:26.051Z,22.97
2018-05-12T03:47:52.567Z,23.70
2018-05-12T03:50:19.809Z,22.65
2018-05-12T03:52:46.295Z,24.85
2018-05-12T03:55:12.759Z,22.87
2018-05-12T03:57:39.288Z,24.10
2018-05-12T04:00:05.853Z,24.57
2018-05-12T04:02:32.490Z,23.17
2018-05-12T04:05:11.944Z,25.48
2018-05-12T04:07:51.435Z,24.60
2018-05-12T04:13:23.142Z,22.97
2018-05-12T04:15:49.605Z,22.60
2018-05-12T04:18:16.098Z,23.57
2018-05-12T04:20:42.580Z,23.30
2018-05-12T04:23:09.034Z,23.60
2018-05-12T04:25:35.670Z,23.53
2018-05-12T04:28:02.194Z,24.07
2018-05-12T04:30:28.678Z,23.97
2018-05-12T04:32:55.142Z,23.37
2018-05-12T04:35:21.762Z,22.50
2018-05-12T04:37:48.262Z,22.97
2018-05-12T04:40:14.889Z,21.50
2018-05-12T04:42:41.366Z,22.13
2018-05-12T04:45:08.568Z,20.67
2018-05-12T04:47:35.073Z,21.83
2018-05-12T04:50:01.589Z,20.83
2018-05-12T04:52:28.848Z,21.73
2018-05-12T04:54:56.053Z,21.03
2018-05-12T04:57:22.704Z,22.13
2018-05-12T04:59:49.134Z,23.00
2018-05-12T05:02:15.638Z,20.63
2018-05-12T05:04:42.086Z,20.47
2018-05-12T05:07:08.667Z,21.90
2018-05-12T05:09:36.000Z,22.30
2018-05-12T05:12:02.523Z,22.37
2018-05-12T05:14:29.249Z,21.23
2018-05-12T05:16:55.778Z,20.67
2018-05-12T05:19:22.366Z,22.57
2018-05-12T05:21:49.593Z,22.67
2018-05-12T05:24:16.054Z,21.07
2018-05-12T05:26:43.361Z,22.13
2018-05-12T05:29:09.897Z,23.60
2018-05-12T05:31:36.515Z,22.23
2018-05-12T05:34:03.066Z,22.50
2018-05-12T05:36:29.511Z,25.20
2018-05-12T05:38:56.021Z,23.77
2018-05-12T05:41:22.507Z,24.67
2018-05-12T05:43:48.986Z,25.80
2018-05-12T05:46:15.582Z,25.10
2018-05-12T05:48:42.106Z,25.90
2018-05-12T05:51:08.678Z,27.20
2018-05-12T05:53:35.210Z,25.23
2018-05-12T05:56:01.818Z,27.70
2018-05-12T05:58:28.365Z,27.20
2018-05-12T06:00:54.914Z,27.20
2018-05-12T06:03:22.162Z,27.63
2018-05-12T06:05:49.394Z,28.97
2018-05-12T06:08:15.878Z,26.53
2018-05-12T06:10:42.385Z,26.13
2018-05-12T06:13:08.925Z,27.80
2018-05-12T06:15:35.427Z,28.03
2018-05-12T06:18:01.886Z,26.23
2018-05-12T06:20:28.403Z,24.97
2018-05-12T06:22:55.783Z,27.03
2018-05-12T06:25:22.225Z,25.67
2018-05-12T06:27:48.778Z,26.67
2018-05-12T06:30:15.199Z,26.87
2018-05-12T06:32:41.682Z,26.00
2018-05-12T06:35:08.189Z,27.10
2018-05-12T06:37:34.694Z,26.93
2018-05-12T06:40:01.173Z,27.20
2018-05-12T06:42:27.728Z,26.43
2018-05-12T06:44:54.979Z,26.97
2018-05-12T06:47:21.649Z,26.73
2018-05-12T06:49:48.261Z,26.67
2018-05-12T06:52:14.739Z,24.53
2018-05-12T06:54:41.205Z,24.80
2018-05-12T06:57:07.662Z,26.23
2018-05-12T06:59:34.959Z,25.57
2018-05-12T07:02:01.471Z,24.27
2018-05-12T07:04:27.965Z,23.67
2018-05-12T07:06:54.456Z,24.43
2018-05-12T07:09:21.029Z,22.67
2018-05-12T07:11:47.511Z,21.73
2018-05-12T07:14:13.986Z,21.73
2018-05-12T07:16:40.481Z,20.03
2018-05-12T07:19:08.373Z,20.23
2018-05-12T07:21:35.877Z,20.20
2018-05-12T07:24:02.321Z,19.63
2018-05-12T07:26:28.761Z,18.03
2018-05-12T07:28:55.960Z,17.43
2018-05-12T07:31:22.510Z,16.83
2018-05-12T07:33:48.982Z,17.03
2018-05-12T07:36:15.577Z,15.30
2018-05-12T07:38:42.035Z,15.47
2018-05-12T07:41:08.542Z,17.00
2018-05-12T07:43:35.044Z,15.50
2018-05-12T07:46:01.549Z,16.10
2018-05-12T07:48:28.861Z,15.30
2018-05-12T07:50:55.305Z,16.33
2018-05-12T07:53:21.892Z,15.57
2018-05-12T07:55:48.326Z,16.67
2018-05-12T07:58:14.861Z,17.17
2018-05-12T08:00:41.369Z,15.43
2018-05-12T08:03:07.904Z,16.17
2018-05-12T08:05:34.417Z,15.57
2018-05-12T08:08:00.903Z,16.10
2018-05-12T08:10:28.275Z,14.67
2018-05-12T08:12:54.837Z,15.33
2018-05-12T08:15:21.327Z,14.80
2018-05-12T08:17:47.874Z,15.17
2018-05-12T08:20:14.397Z,15.37
2018-05-12T08:22:40.918Z,15.60
2018-05-12T08:25:08.128Z,14.97
2018-05-12T08:27:34.576Z,15.07
2018-05-12T08:30:01.026Z,14.07
2018-05-12T08:32:28.402Z,15.97
2018-05-12T08:34:54.919Z,16.43
2018-05-12T08:37:22.130Z,15.00
2018-05-12T08:39:48.754Z,15.43
2018-05-12T08:42:15.213Z,16.17
2018-05-12T08:44:41.846Z,13.07
2018-05-12T08:47:08.459Z,15.17
2018-05-12T08:49:34.993Z,14.53
2018-05-12T08:52:01.463Z,15.27
2018-05-12T08:54:28.006Z,16.43
2018-05-12T08:56:54.539Z,14.63
2018-05-12T08:59:21.038Z,13.10
2018-05-12T09:01:47.479Z,15.10
2018-05-12T09:04:13.972Z,13.90
2018-05-12T09:06:40.692Z,13.20
2018-05-12T09:09:08.055Z,13.27
2018-05-12T09:11:35.310Z,11.80
2018-05-12T09:14:02.596Z,11.23
2018-05-12T09:16:29.105Z,11.63
2018-05-12T09:18:55.540Z,12.57
2018-05-12T09:21:22.065Z,10.60
2018-05-12T09:23:48.539Z,10.10
2018-05-12T09:26:15.083Z,9.20
2018-05-12T09:28:41.715Z,13.00
2018-05-12T09:31:08.259Z,10.30
2018-05-12T09:33:34.777Z,11.87
2018-05-12T09:36:02.082Z,12.60
2018-05-12T09:38:29.436Z,11.43
2018-05-12T09:40:55.959Z,10.20
2018-05-12T09:43:22.529Z,10.40
2018-05-12T09:45:49.044Z,12.40
2018-05-12T09:48:16.296Z,11.10
2018-05-12T09:50:43.539Z,11.40
2018-05-12T09:53:10.115Z,11.07
2018-05-12T09:55:36.710Z,13.00
2018-05-12T09:58:03.358Z,12.60
2018-05-12T10:00:29.819Z,11.70
2018-05-12T10:02:56.374Z,13.50
2018-05-12T10:05:22.893Z,11.57
2018-05-12T10:07:49.479Z,10.83
2018-05-12T10:10:15.963Z,11.37
2018-05-12T10:12:42.485Z,9.60
2018-05-12T10:15:08.850Z,9.37
2018-05-12T10:17:35.282Z,9.13
2018-05-12T10:20:01.753Z,9.07
2018-05-12T10:22:28.185Z,8.20
2018-05-12T10:24:54.672Z,8.47
2018-05-12T10:27:21.162Z,7.50
2018-05-12T10:29:48.453Z,7.50
2018-05-12T10:32:14.954Z,8.13
2018-05-12T10:34:42.193Z,9.00
2018-05-12T10:37:08.671Z,8.77
2018-05-12T10:39:35.141Z,10.03
2018-05-12T10:42:02.403Z,9.23
2018-05-12T10:44:29.050Z,9.20
2018-05-12T10:46:55.909Z,8.33
2018-05-12T10:49:24.078Z,8.30
2018-05-12T10:51:53.711Z,8.40
2018-05-12T10:54:20.199Z,7.83
2018-05-12T10:56:46.773Z,8.17
2018-05-12T10:59:14.091Z,9.80
2018-05-12T11:01:40.577Z,8.93
2018-05-12T11:04:07.133Z,8.50
2018-05-12T11:06:33.620Z,7.53
2018-05-12T11:09:00.952Z,7.17
2018-05-12T11:11:27.557Z,9.17
2018-05-12T11:13:54.023Z,10.57
2018-05-12T11:16:20.494Z,10.80
2018-05-12T11:18:46.981Z,10.53
2018-05-12T11:21:13.614Z,10.37
2018-05-12T11:23:40.054Z,9.63
2018-05-12T11:26:06.586Z,10.97
2018-05-12T11:28:33.092Z,10.30
2018-05-12T11:33:55.401Z,9.50
2018-05-12T11:36:21.841Z,11.47
2018-05-12T11:38:48.290Z,9.30
2018-05-12T11:41:14.683Z,9.70
2018-05-12T11:43:41.858Z,8.90
2018-05-12T11:46:08.369Z,8.30
2018-05-12T11:48:35.549Z,10.77
2018-05-12T11:51:06.995Z,8.87
2018-05-12T11:53:33.673Z,9.87
2018-05-12T11:56:00.371Z,9.07
2018-05-12T11:58:27.068Z,8.87
2018-05-12T12:00:53.436Z,9.83
2018-05-12T12:03:19.869Z,9.10
2018-05-12T12:05:46.324Z,13.47
2018-05-12T12:08:12.781Z,12.10
2018-05-12T12:10:39.274Z,12.00
2018-05-12T12:13:05.844Z,12.57
2018-05-12T12:15:32.285Z,12.27
2018-05-12T12:17:58.724Z,12.63
2018-05-12T12:20:25.168Z,12.50
2018-05-12T12:22:52.341Z,11.70
2018-05-12T12:25:18.768Z,11.27
2018-05-12T12:27:45.947Z,10.83
2018-05-12T12:30:19.549Z,11.03
2018-05-12T12:32:45.965Z,11.90
2018-05-12T12:35:12.965Z,9.43
2018-05-12T12:37:39.388Z,11.27
2018-05-12T12:40:05.831Z,9.30
2018-05-12T12:42:32.282Z,10.90
2018-05-12T12:44:59.520Z,9.33
2018-05-12T12:47:26.764Z,11.00
2018-05-12T12:49:53.321Z,9.90
2018-05-12T12:52:20.476Z,8.90
2018-05-12T12:54:48.256Z,9.50
2018-05-12T12:57:14.675Z,8.57
2018-05-12T12:59:41.176Z,8.30
2018-05-12T13:02:07.604Z,7.50
2018-05-12T13:04:34.106Z,8.17
2018-05-12T13:07:00.476Z,7.47
2018-05-12T13:09:27.012Z,7.10
2018-05-12T13:11:53.409Z,5.93
2018-05-12T13:14:19.892Z,5.33
2018-05-12T13:16:47.064Z,9.40
2018-05-12T13:19:13.524Z,8.17
2018-05-12T13:21:39.996Z,6.57
2018-05-12T13:24:06.355Z,6.70
2018-05-12T13:26:32.751Z,6.00
2018-05-12T13:28:59.206Z,6.27
2018-05-12T13:31:26.424Z,5.23
2018-05-12T13:33:52.851Z,6.47
2018-05-12T13:36:19.281Z,6.60
2018-05-12T13:38:45.741Z,5.80
2018-05-12T13:41:12.143Z,7.20
2018-05-12T13:43:38.540Z,6.50
2018-05-12T13:46:04.955Z,7.37
2018-05-12T13:48:32.211Z,5.43
2018-05-12T13:50:58.656Z,6.20
2018-05-12T13:53:25.144Z,5.87
2018-05-12T13:55:51.721Z,6.90
2018-05-12T13:58:18.063Z,5.40
2018-05-12T14:00:44.502Z,5.17
2018-05-12T14:03:10.936Z,5.23
2018-05-12T14:05:37.320Z,6.00
2018-05-12T14:08:04.468Z,5.07
2018-05-12T14:10:30.931Z,6.40
2018-05-12T14:12:57.377Z,6.57
2018-05-12T14:15:23.838Z,5.97
2018-05-12T14:17:50.298Z,6.40
2018-05-12T14:20:16.736Z,5.40
2018-05-12T14:22:43.941Z,5.97
2018-05-12T14:25:10.343Z,5.57
2018-05-12T14:27:36.748Z,6.20
2018-05-12T14:30:03.948Z,6.87
2018-05-12T14:32:30.437Z,7.63
2018-05-12T14:34:57.584Z,7.10
2018-05-12T14:37:24.716Z,7.70
2018-05-12T14:39:51.172Z,8.13
2018-05-12T14:42:18.521Z,7.33
2018-05-12T14:44:45.721Z,7.20
2018-05-12T14:47:12.143Z,7.83
2018-05-12T14:49:38.571Z,7.80
2018-05-12T14:52:05.001Z,7.43
2018-05-12T14:54:31.630Z,6.40
2018-05-12T14:56:58.036Z,7.00
2018-05-12T14:59:25.250Z,6.50
2018-05-12T15:01:52.145Z,7.03
2018-05-12T15:04:18.621Z,6.90
2018-05-12T15:06:45.108Z,6.10
2018-05-12T15:09:12.369Z,6.83
2018-05-12T15:11:38.789Z,5.70
2018-05-12T15:14:05.976Z,6.80
2018-05-12T15:16:32.444Z,6.80
2018-05-12T15:18:58.867Z,7.67
2018-05-12T15:21:25.585Z,7.50
2018-05-12T15:23:51.936Z,7.10
2018-05-12T15:26:18.362Z,7.87
2018-05-12T15:28:44.806Z,7.23
2018-05-12T15:31:11.295Z,6.40
2018-05-12T15:33:37.687Z,6.10
2018-05-12T15:36:04.846Z,6.30
2018-05-12T15:38:32.088Z,7.17
2018-05-12T15:40:58.487Z,7.37
2018-05-12T15:43:24.946Z,7.80
2018-05-12T15:45:53.024Z,7.47
2018-05-12T15:48:20.263Z,8.47
2018-05-12T15:50:46.702Z,6.90
2018-05-12T15:53:13.128Z,8.20
2018-05-12T15:55:39.564Z,7.93
2018-05-12T15:58:06.043Z,4.90
2018-05-12T16:00:32.437Z,6.50
2018-05-12T16:02:59.660Z,7.20
2018-05-12T16:05:33.045Z,6.47
2018-05-12T16:07:59.493Z,6.47
2018-05-12T16:10:25.953Z,6.87
2018-05-12T16:12:53.101Z,7.80
2018-05-12T16:15:20.473Z,7.80
2018-05-12T16:17:46.894Z,6.07
2018-05-12T16:20:14.096Z,7.00
2018-05-12T16:22:40.560Z,6.17
2018-05-12T16:25:07.011Z,7.10
2018-05-12T16:27:34.990Z,7.23
2018-05-12T16:30:01.504Z,7.63
2018-05-12T16:32:28.648Z,6.60
2018-05-12T16:34:55.841Z,6.80
2018-05-12T16:37:22.336Z,6.30
2018-05-12T16:39:48.812Z,6.70
2018-05-12T16:42:15.277Z,6.20
2018-05-12T16:44:41.821Z,4.73
2018-05-12T16:47:08.952Z,5.80
2018-05-12T16:49:35.330Z,6.47
2018-05-12T16:52:02.508Z,6.43
2018-05-12T16:54:29.955Z,6.30
2018-05-12T16:56:56.395Z,6.43
2018-05-12T16:59:22.840Z,5.80
2018-05-12T17:01:49.383Z,6.13
2018-05-12T17:04:16.377Z,6.77
2018-05-12T17:16:27.914Z,6.90
2018-05-12T17:18:55.082Z,7.30
2018-05-12T17:21:21.459Z,7.70
2018-05-12T17:23:47.893Z,6.20
2018-05-12T17:26:14.923Z,7.27
2018-05-12T17:28:43.308Z,7.90
2018-05-12T17:31:10.926Z,6.87
2018-05-12T17:33:39.119Z,7.60
2018-05-12T17:36:05.581Z,7.33
2018-05-12T17:38:32.068Z,6.70
2018-05-12T17:40:59.247Z,7.23
2018-05-12T17:43:25.674Z,6.87
2018-05-12T17:45:52.167Z,7.93
2018-05-12T17:48:19.337Z,7.10
2018-05-12T17:50:45.908Z,8.30
2018-05-12T17:53:12.299Z,8.57
2018-05-12T17:55:38.925Z,7.73
2018-05-12T17:58:05.327Z,8.27
2018-05-12T18:00:31.818Z,8.00
2018-05-12T18:02:58.269Z,7.87
2018-05-12T18:05:24.797Z,8.00
2018-05-12T18:07:51.212Z,8.50
2018-05-12T18:10:17.797Z,7.70
2018-05-12T18:12:44.183Z,6.90
2018-05-12T18:15:10.620Z,7.80
2018-05-12T18:17:37.053Z,7.23
2018-05-12T18:20:03.551Z,8.00
2018-05-12T18:22:30.729Z,8.70
2018-05-12T18:24:57.902Z,7.33
2018-05-12T18:27:24.416Z,7.43
2018-05-12T18:29:50.907Z,7.70
2018-05-12T18:32:17.372Z,8.27
2018-05-12T18:34:43.824Z,7.50
2018-05-12T18:37:10.244Z,7.73
2018-05-12T18:39:36.720Z,8.80
2018-05-12T18:42:03.235Z,7.70
2018-05-12T18:44:29.669Z,8.60
2018-05-12T18:46:56.107Z,7.67
2018-05-12T18:49:22.584Z,8.30
2018-05-12T18:51:49.749Z,9.03
2018-05-12T18:54:16.265Z,8.50
2018-05-12T18:56:43.615Z,9.73
2018-05-12T18:59:09.944Z,9.33
2018-05-12T19:01:37.117Z,10.47
2018-05-12T19:04:03.650Z,9.40
2018-05-12T19:06:30.099Z,10.23
2018-05-12T19:08:56.683Z,9.43
2018-05-12T19:11:23.117Z,8.90
2018-05-12T19:13:49.572Z,9.90
2018-05-12T19:16:16.900Z,10.10
2018-05-12T19:18:43.347Z,9.70
2018-05-12T19:21:09.921Z,10.20
2018-05-12T19:23:36.398Z,9.83
2018-05-12T19:26:02.951Z,10.03
2018-05-12T19:28:29.390Z,10.33
2018-05-12T19:30:56.613Z,9.90
2018-05-12T19:33:23.073Z,10.83
2018-05-12T19:35:50.337Z,10.50
2018-05-12T19:38:17.548Z,11.93
2018-05-12T19:40:44.007Z,10.80
2018-05-12T19:43:11.240Z,11.03
2018-05-12T19:45:37.691Z,11.70
2018-05-12T19:48:04.350Z,11.90
2018-05-12T19:50:30.759Z,11.07
2018-05-12T19:52:57.984Z,11.67
2018-05-12T19:55:24.452Z,11.50
2018-05-12T19:57:51.900Z,10.97
2018-05-12T20:00:19.357Z,11.43
2018-05-12T20:02:46.690Z,12.23
2018-05-12T20:05:13.139Z,11.80
2018-05-12T20:07:40.378Z,11.00
2018-05-12T20:10:06.881Z,11.80
2018-05-12T20:12:33.353Z,10.77
2018-05-12T20:14:59.862Z,10.10
2018-05-12T20:17:26.317Z,11.47
2018-05-12T20:19:52.842Z,11.83
2018-05-12T20:22:19.263Z,11.80
2018-05-12T20:24:45.728Z,10.67
2018-05-12T20:27:12.918Z,11.30
2018-05-12T20:29:39.432Z,11.70
2018-05-12T20:32:05.871Z,10.93
2018-05-12T20:34:32.322Z,10.33
2018-05-12T20:36:58.792Z,10.83
2018-05-12T20:39:25.241Z,11.20
2018-05-12T20:41:51.674Z,11.73
2018-05-12T20:44:18.914Z,11.70
2018-05-12T20:46:45.347Z,11.60
2018-05-12T20:49:11.847Z,11.03
2018-05-12T20:51:38.273Z,11.20
2018-05-12T20:54:04.732Z,11.13
2018-05-12T20:56:31.139Z,11.73
2018-05-12T20:58:57.620Z,11.27
2018-05-12T21:01:24.790Z,12.00
2018-05-12T21:03:52.034Z,12.17
2018-05-12T21:06:19.361Z,11.70
2018-05-12T21:08:45.788Z,11.43
2018-05-12T21:11:12.247Z,11.57
2018-05-12T21:13:39.428Z,10.60
2018-05-12T21:16:05.857Z,10.80
2018-05-12T21:18:32.268Z,13.73
2018-05-12T21:20:59.612Z,12.20
2018-05-12T21:23:26.899Z,10.93
2018-05-12T21:25:53.292Z,10.93
2018-05-12T21:28:20.535Z,10.17
2018-05-12T21:30:46.967Z,9.50
2018-05-12T21:33:13.425Z,8.70
2018-05-12T21:35:39.847Z,9.87
2018-05-12T21:38:06.401Z,10.17
2018-05-12T21:40:32.825Z,9.50
2018-05-12T21:43:00.052Z,9.73
2018-05-12T21:45:26.525Z,10.37
2018-05-12T21:47:53.169Z,10.20
2018-05-12T21:50:19.608Z,10.40
2018-05-12T21:52:46.058Z,10.23
2018-05-12T21:55:12.464Z,9.13
2018-05-12T21:57:38.932Z,10.23
2018-05-12T22:00:05.350Z,11.33
2018-05-12T22:02:31.815Z,13.70
2018-05-12T22:04:58.262Z,12.97
2018-05-12T22:07:25.465Z,13.80
2018-05-12T22:09:51.978Z,14.87
2018-05-12T22:12:18.487Z,13.70
2018-05-12T22:14:45.688Z,14.97
2018-05-12T22:17:12.907Z,14.20
2018-05-12T22:19:39.397Z,14.10
2018-05-12T22:22:05.867Z,14.90
2018-05-12T22:24:33.101Z,14.40
2018-05-12T22:27:00.280Z,15.43
2018-05-12T22:29:26.739Z,13.47
2018-05-12T22:31:53.223Z,13.60
2018-05-12T22:34:21.483Z,14.10
2018-05-12T22:36:47.939Z,14.20
2018-05-12T22:39:14.405Z,15.10
2018-05-12T22:41:40.844Z,14.93
2018-05-12T22:44:08.058Z,14.93
2018-05-12T22:46:34.501Z,15.37
2018-05-12T22:49:00.949Z,15.50
2018-05-12T22:51:27.388Z,15.00
2018-05-12T22:53:53.771Z,14.80
2018-05-12T22:56:20.954Z,14.90
2018-05-12T22:58:47.462Z,14.33
2018-05-12T23:01:14.625Z,14.10
2018-05-12T23:03:41.070Z,13.33
2018-05-12T23:06:07.532Z,13.13
2018-05-12T23:08:34.008Z,14.20
2018-05-12T23:11:01.297Z,12.40
2018-05-12T23:13:27.709Z,11.73
2018-05-12T23:15:54.182Z,12.80
2018-05-12T23:18:20.668Z,11.90
2018-05-12T23:20:47.767Z,12.03
2018-05-12T23:23:14.345Z,10.60
2018-05-12T23:25:41.507Z,11.07
2018-05-12T23:28:07.939Z,10.63
2018-05-12T23:30:34.353Z,9.87
2018-05-12T23:33:01.624Z,9.97
2018-05-12T23:35:28.064Z,9.93
2018-05-12T23:37:54.571Z,9.53
2018-05-12T23:40:21.701Z,10.30
2018-05-12T23:42:48.096Z,9.10
2018-05-12T23:45:14.572Z,9.20
2018-05-12T23:47:40.985Z,10.07
2018-05-12T23:50:07.412Z,10.00
2018-05-12T23:52:33.844Z,9.47
2018-05-12T23:55:00.307Z,10.27
2018-05-12T23:57:27.452Z,9.70
2018-05-12T23:59:54.630Z,9.63
